sensor_id;sensor_type;location;lat;lon;timestamp;temperature;humidity
1347;DHT22;667;48.796;9.480;2023-12-20T00:02:16;8.20;79.90
1347;DHT22;667;48.796;9.480;2023-12-20T00:04:41;8.20;80.00
1347;DHT22;667;48.796;9.480;2023-12-20T00:07:07;8.30;80.10
1347;DHT22;667;48.796;9.480;2023-12-20T00:09:33;8.30;80.20
1347;DHT22;667;48.796;9.480;2023-12-20T00:11:58;8.30;80.40
1347;DHT22;667;48.796;9.480;2023-12-20T00:14:24;8.30;80.80
1347;DHT22;667;48.796;9.480;2023-12-20T00:16:49;8.30;81.00
1347;DHT22;667;48.796;9.480;2023-12-20T00:19:15;8.30;81.00
1347;DHT22;667;48.796;9.480;2023-12-20T00:21:40;8.40;81.30
1347;DHT22;667;48.796;9.480;2023-12-20T00:24:06;8.40;81.40
1347;DHT22;667;48.796;9.480;2023-12-20T00:26:32;8.40;81.50
1347;DHT22;667;48.796;9.480;2023-12-20T00:28:57;8.40;81.70
1347;DHT22;667;48.796;9.480;2023-12-20T00:31:23;8.40;82.00
1347;DHT22;667;48.796;9.480;2023-12-20T00:33:48;8.40;82.10
1347;DHT22;667;48.796;9.480;2023-12-20T00:36:14;8.40;82.30
1347;DHT22;667;48.796;9.480;2023-12-20T00:38:39;8.40;82.30
1347;DHT22;667;48.796;9.480;2023-12-20T00:41:05;8.40;82.30
1347;DHT22;667;48.796;9.480;2023-12-20T00:43:30;8.40;82.40
1347;DHT22;667;48.796;9.480;2023-12-20T00:45:56;8.40;82.50
1347;DHT22;667;48.796;9.480;2023-12-20T00:48:22;8.40;82.50
1347;DHT22;667;48.796;9.480;2023-12-20T00:50:47;8.40;82.60
1347;DHT22;667;48.796;9.480;2023-12-20T00:53:13;8.40;82.70
1347;DHT22;667;48.796;9.480;2023-12-20T00:55:39;8.40;82.80
1347;DHT22;667;48.796;9.480;2023-12-20T00:58:04;8.40;82.90
1347;DHT22;667;48.796;9.480;2023-12-20T01:00:30;8.30;83.00
1347;DHT22;667;48.796;9.480;2023-12-20T01:02:55;8.30;83.20
1347;DHT22;667;48.796;9.480;2023-12-20T01:05:21;8.30;83.30
1347;DHT22;667;48.796;9.480;2023-12-20T01:07:48;8.30;83.50
1347;DHT22;667;48.796;9.480;2023-12-20T01:10:14;8.30;83.60
1347;DHT22;667;48.796;9.480;2023-12-20T01:12:40;8.30;83.70
1347;DHT22;667;48.796;9.480;2023-12-20T01:15:06;8.30;83.90
1347;DHT22;667;48.796;9.480;2023-12-20T01:17:31;8.30;84.10
1347;DHT22;667;48.796;9.480;2023-12-20T01:19:57;8.30;84.30
1347;DHT22;667;48.796;9.480;2023-12-20T01:22:23;8.30;84.50
1347;DHT22;667;48.796;9.480;2023-12-20T01:24:49;8.30;84.70
1347;DHT22;667;48.796;9.480;2023-12-20T01:27:14;8.20;84.80
1347;DHT22;667;48.796;9.480;2023-12-20T01:29:40;8.20;84.90
1347;DHT22;667;48.796;9.480;2023-12-20T01:32:06;8.20;85.00
1347;DHT22;667;48.796;9.480;2023-12-20T01:34:31;8.20;85.30
1347;DHT22;667;48.796;9.480;2023-12-20T01:36:57;8.20;85.30
1347;DHT22;667;48.796;9.480;2023-12-20T01:39:23;8.30;85.60
1347;DHT22;667;48.796;9.480;2023-12-20T01:41:48;8.30;85.70
1347;DHT22;667;48.796;9.480;2023-12-20T01:44:14;8.30;86.10
1347;DHT22;667;48.796;9.480;2023-12-20T01:46:39;8.20;86.30
1347;DHT22;667;48.796;9.480;2023-12-20T01:49:06;8.20;87.30
1347;DHT22;667;48.796;9.480;2023-12-20T01:51:33;8.20;86.80
1347;DHT22;667;48.796;9.480;2023-12-20T01:53:59;8.20;86.90
1347;DHT22;667;48.796;9.480;2023-12-20T01:56:26;8.30;87.10
1347;DHT22;667;48.796;9.480;2023-12-20T01:58:54;8.30;87.10
1347;DHT22;667;48.796;9.480;2023-12-20T02:01:20;8.30;87.10
1347;DHT22;667;48.796;9.480;2023-12-20T02:03:46;8.20;87.00
1347;DHT22;667;48.796;9.480;2023-12-20T02:06:12;8.20;87.10
1347;DHT22;667;48.796;9.480;2023-12-20T02:08:38;8.20;87.30
1347;DHT22;667;48.796;9.480;2023-12-20T02:11:04;8.20;87.50
1347;DHT22;667;48.796;9.480;2023-12-20T02:13:30;8.20;87.70
1347;DHT22;667;48.796;9.480;2023-12-20T02:15:56;8.20;87.90
1347;DHT22;667;48.796;9.480;2023-12-20T02:18:22;8.20;88.10
1347;DHT22;667;48.796;9.480;2023-12-20T02:20:48;8.20;88.40
1347;DHT22;667;48.796;9.480;2023-12-20T02:23:13;8.20;88.70
1347;DHT22;667;48.796;9.480;2023-12-20T02:25:39;8.20;88.70
1347;DHT22;667;48.796;9.480;2023-12-20T02:28:05;8.20;88.80
1347;DHT22;667;48.796;9.480;2023-12-20T02:30:32;8.20;88.90
1347;DHT22;667;48.796;9.480;2023-12-20T02:32:59;8.20;89.00
1347;DHT22;667;48.796;9.480;2023-12-20T02:35:25;8.30;89.20
1347;DHT22;667;48.796;9.480;2023-12-20T02:37:51;8.20;89.10
1347;DHT22;667;48.796;9.480;2023-12-20T02:40:16;8.20;89.10
1347;DHT22;667;48.796;9.480;2023-12-20T02:42:42;8.20;89.20
1347;DHT22;667;48.796;9.480;2023-12-20T02:45:08;8.20;89.30
1347;DHT22;667;48.796;9.480;2023-12-20T02:47:33;8.20;89.50
1347;DHT22;667;48.796;9.480;2023-12-20T02:49:59;8.20;89.70
1347;DHT22;667;48.796;9.480;2023-12-20T02:52:25;8.20;90.00
1347;DHT22;667;48.796;9.480;2023-12-20T02:54:50;8.20;90.10
1347;DHT22;667;48.796;9.480;2023-12-20T02:57:16;8.20;90.20
1347;DHT22;667;48.796;9.480;2023-12-20T02:59:41;8.20;90.30
1347;DHT22;667;48.796;9.480;2023-12-20T03:02:07;8.20;90.40
1347;DHT22;667;48.796;9.480;2023-12-20T03:04:33;8.20;90.50
1347;DHT22;667;48.796;9.480;2023-12-20T03:06:58;8.20;90.50
1347;DHT22;667;48.796;9.480;2023-12-20T03:09:24;8.20;90.60
1347;DHT22;667;48.796;9.480;2023-12-20T03:11:49;8.20;90.60
1347;DHT22;667;48.796;9.480;2023-12-20T03:14:15;8.20;90.60
1347;DHT22;667;48.796;9.480;2023-12-20T03:16:40;8.20;90.60
1347;DHT22;667;48.796;9.480;2023-12-20T03:19:06;8.20;90.60
1347;DHT22;667;48.796;9.480;2023-12-20T03:21:31;8.20;90.60
1347;DHT22;667;48.796;9.480;2023-12-20T03:23:57;8.20;90.70
1347;DHT22;667;48.796;9.480;2023-12-20T03:26:23;8.20;90.70
1347;DHT22;667;48.796;9.480;2023-12-20T03:28:48;8.20;90.70
1347;DHT22;667;48.796;9.480;2023-12-20T03:31:14;8.20;90.80
1347;DHT22;667;48.796;9.480;2023-12-20T03:33:39;8.20;90.80
1347;DHT22;667;48.796;9.480;2023-12-20T03:36:06;8.20;90.80
1347;DHT22;667;48.796;9.480;2023-12-20T03:38:31;8.20;90.80
1347;DHT22;667;48.796;9.480;2023-12-20T03:40:57;8.20;90.90
1347;DHT22;667;48.796;9.480;2023-12-20T03:43:22;8.20;90.90
1347;DHT22;667;48.796;9.480;2023-12-20T03:45:48;8.20;91.30
1347;DHT22;667;48.796;9.480;2023-12-20T03:48:13;8.20;91.00
1347;DHT22;667;48.796;9.480;2023-12-20T03:50:39;8.20;91.10
1347;DHT22;667;48.796;9.480;2023-12-20T03:53:05;8.20;91.10
1347;DHT22;667;48.796;9.480;2023-12-20T03:55:30;8.20;91.20
1347;DHT22;667;48.796;9.480;2023-12-20T03:57:56;8.20;91.20
1347;DHT22;667;48.796;9.480;2023-12-20T04:00:21;8.20;91.20
1347;DHT22;667;48.796;9.480;2023-12-20T04:02:47;8.20;91.20
1347;DHT22;667;48.796;9.480;2023-12-20T04:05:12;8.20;91.30
1347;DHT22;667;48.796;9.480;2023-12-20T04:07:38;8.20;91.30
1347;DHT22;667;48.796;9.480;2023-12-20T04:10:04;8.20;91.30
1347;DHT22;667;48.796;9.480;2023-12-20T04:12:31;8.20;91.40
1347;DHT22;667;48.796;9.480;2023-12-20T04:14:57;8.20;91.50
1347;DHT22;667;48.796;9.480;2023-12-20T04:17:22;8.20;91.90
1347;DHT22;667;48.796;9.480;2023-12-20T04:19:49;8.20;91.60
1347;DHT22;667;48.796;9.480;2023-12-20T04:22:14;8.20;91.70
1347;DHT22;667;48.796;9.480;2023-12-20T04:24:40;8.20;91.70
1347;DHT22;667;48.796;9.480;2023-12-20T04:27:07;8.20;91.80
1347;DHT22;667;48.796;9.480;2023-12-20T04:29:33;8.20;91.90
1347;DHT22;667;48.796;9.480;2023-12-20T04:31:59;8.20;91.90
1347;DHT22;667;48.796;9.480;2023-12-20T04:34:24;8.20;91.90
1347;DHT22;667;48.796;9.480;2023-12-20T04:36:50;8.20;91.90
1347;DHT22;667;48.796;9.480;2023-12-20T04:39:15;8.20;91.90
1347;DHT22;667;48.796;9.480;2023-12-20T04:41:41;8.20;91.90
1347;DHT22;667;48.796;9.480;2023-12-20T04:44:07;8.20;91.90
1347;DHT22;667;48.796;9.480;2023-12-20T04:46:32;8.20;91.90
1347;DHT22;667;48.796;9.480;2023-12-20T04:48:58;8.20;91.90
1347;DHT22;667;48.796;9.480;2023-12-20T04:51:23;8.20;91.90
1347;DHT22;667;48.796;9.480;2023-12-20T04:53:49;8.20;91.90
1347;DHT22;667;48.796;9.480;2023-12-20T04:56:15;8.20;91.90
1347;DHT22;667;48.796;9.480;2023-12-20T04:58:40;8.20;91.90
1347;DHT22;667;48.796;9.480;2023-12-20T05:01:06;8.20;91.90
1347;DHT22;667;48.796;9.480;2023-12-20T05:03:32;8.20;91.90
1347;DHT22;667;48.796;9.480;2023-12-20T05:05:58;8.20;91.90
1347;DHT22;667;48.796;9.480;2023-12-20T05:08:23;8.20;91.80
1347;DHT22;667;48.796;9.480;2023-12-20T05:10:50;8.20;91.80
1347;DHT22;667;48.796;9.480;2023-12-20T05:13:16;8.20;91.80
1347;DHT22;667;48.796;9.480;2023-12-20T05:15:42;8.20;91.80
1347;DHT22;667;48.796;9.480;2023-12-20T05:18:07;8.20;91.80
1347;DHT22;667;48.796;9.480;2023-12-20T05:20:33;8.20;91.70
1347;DHT22;667;48.796;9.480;2023-12-20T05:22:58;8.30;91.70
1347;DHT22;667;48.796;9.480;2023-12-20T05:25:24;8.30;91.60
1347;DHT22;667;48.796;9.480;2023-12-20T05:27:50;8.30;91.50
1347;DHT22;667;48.796;9.480;2023-12-20T05:30:16;8.30;91.50
1347;DHT22;667;48.796;9.480;2023-12-20T05:32:41;8.30;91.40
1347;DHT22;667;48.796;9.480;2023-12-20T05:35:07;8.30;91.40
1347;DHT22;667;48.796;9.480;2023-12-20T05:37:32;8.30;91.40
1347;DHT22;667;48.796;9.480;2023-12-20T05:39:58;8.30;91.40
1347;DHT22;667;48.796;9.480;2023-12-20T05:42:24;8.30;91.40
1347;DHT22;667;48.796;9.480;2023-12-20T05:44:49;8.30;91.40
1347;DHT22;667;48.796;9.480;2023-12-20T05:47:15;8.30;91.30
1347;DHT22;667;48.796;9.480;2023-12-20T05:49:40;8.30;91.30
1347;DHT22;667;48.796;9.480;2023-12-20T05:52:06;8.30;91.40
1347;DHT22;667;48.796;9.480;2023-12-20T05:54:31;8.30;91.40
1347;DHT22;667;48.796;9.480;2023-12-20T05:56:57;8.30;91.40
1347;DHT22;667;48.796;9.480;2023-12-20T05:59:22;8.20;91.40
1347;DHT22;667;48.796;9.480;2023-12-20T06:01:48;8.20;91.40
1347;DHT22;667;48.796;9.480;2023-12-20T06:04:14;8.20;91.50
1347;DHT22;667;48.796;9.480;2023-12-20T06:06:42;8.20;91.60
1347;DHT22;667;48.796;9.480;2023-12-20T06:09:08;8.20;91.60
1347;DHT22;667;48.796;9.480;2023-12-20T06:11:37;8.20;91.70
1347;DHT22;667;48.796;9.480;2023-12-20T06:14:02;8.20;91.70
1347;DHT22;667;48.796;9.480;2023-12-20T06:16:28;8.10;91.70
1347;DHT22;667;48.796;9.480;2023-12-20T06:18:54;8.20;91.80
1347;DHT22;667;48.796;9.480;2023-12-20T06:21:19;8.20;91.80
1347;DHT22;667;48.796;9.480;2023-12-20T06:23:45;8.20;91.80
1347;DHT22;667;48.796;9.480;2023-12-20T06:26:11;8.20;91.80
1347;DHT22;667;48.796;9.480;2023-12-20T06:28:36;8.20;91.80
1347;DHT22;667;48.796;9.480;2023-12-20T06:31:02;8.20;91.80
1347;DHT22;667;48.796;9.480;2023-12-20T06:33:28;8.20;91.80
1347;DHT22;667;48.796;9.480;2023-12-20T06:35:56;8.20;91.80
1347;DHT22;667;48.796;9.480;2023-12-20T06:38:21;8.20;91.70
1347;DHT22;667;48.796;9.480;2023-12-20T06:40:47;8.30;91.80
1347;DHT22;667;48.796;9.480;2023-12-20T06:43:13;8.30;91.80
1347;DHT22;667;48.796;9.480;2023-12-20T06:45:38;8.30;92.10
1347;DHT22;667;48.796;9.480;2023-12-20T06:48:04;8.30;91.80
1347;DHT22;667;48.796;9.480;2023-12-20T06:50:30;8.30;91.70
1347;DHT22;667;48.796;9.480;2023-12-20T06:52:56;8.30;91.70
1347;DHT22;667;48.796;9.480;2023-12-20T06:55:21;8.30;91.80
1347;DHT22;667;48.796;9.480;2023-12-20T06:57:47;8.30;91.80
1347;DHT22;667;48.796;9.480;2023-12-20T07:00:13;8.30;91.80
1347;DHT22;667;48.796;9.480;2023-12-20T07:02:38;8.30;91.80
1347;DHT22;667;48.796;9.480;2023-12-20T07:05:04;8.30;91.80
1347;DHT22;667;48.796;9.480;2023-12-20T07:07:30;8.30;91.70
1347;DHT22;667;48.796;9.480;2023-12-20T07:09:56;8.40;91.80
1347;DHT22;667;48.796;9.480;2023-12-20T07:12:21;8.40;91.70
1347;DHT22;667;48.796;9.480;2023-12-20T07:14:47;8.40;91.70
1347;DHT22;667;48.796;9.480;2023-12-20T07:17:12;8.40;91.70
1347;DHT22;667;48.796;9.480;2023-12-20T07:19:40;8.40;91.70
1347;DHT22;667;48.796;9.480;2023-12-20T07:22:06;8.40;91.70
1347;DHT22;667;48.796;9.480;2023-12-20T07:24:32;8.30;91.70
1347;DHT22;667;48.796;9.480;2023-12-20T07:26:58;8.30;91.80
1347;DHT22;667;48.796;9.480;2023-12-20T07:29:24;8.30;91.90
1347;DHT22;667;48.796;9.480;2023-12-20T07:31:50;8.30;91.90
1347;DHT22;667;48.796;9.480;2023-12-20T07:34:17;8.30;91.90
1347;DHT22;667;48.796;9.480;2023-12-20T07:36:43;8.30;91.90
1347;DHT22;667;48.796;9.480;2023-12-20T07:39:08;8.30;92.00
1347;DHT22;667;48.796;9.480;2023-12-20T07:41:34;8.30;92.00
1347;DHT22;667;48.796;9.480;2023-12-20T07:43:59;8.30;92.10
1347;DHT22;667;48.796;9.480;2023-12-20T07:46:25;8.30;92.10
1347;DHT22;667;48.796;9.480;2023-12-20T07:48:51;8.30;92.20
1347;DHT22;667;48.796;9.480;2023-12-20T07:51:16;8.30;92.30
1347;DHT22;667;48.796;9.480;2023-12-20T07:53:42;8.30;92.40
1347;DHT22;667;48.796;9.480;2023-12-20T07:56:18;8.30;92.40
1347;DHT22;667;48.796;9.480;2023-12-20T07:58:44;8.30;92.50
1347;DHT22;667;48.796;9.480;2023-12-20T08:01:11;8.30;92.50
1347;DHT22;667;48.796;9.480;2023-12-20T08:03:37;8.30;92.50
1347;DHT22;667;48.796;9.480;2023-12-20T08:06:03;8.30;92.60
1347;DHT22;667;48.796;9.480;2023-12-20T08:08:29;8.30;92.60
1347;DHT22;667;48.796;9.480;2023-12-20T08:10:55;8.30;92.60
1347;DHT22;667;48.796;9.480;2023-12-20T08:13:23;8.30;92.60
1347;DHT22;667;48.796;9.480;2023-12-20T08:15:51;8.30;92.60
1347;DHT22;667;48.796;9.480;2023-12-20T08:18:17;8.30;92.50
1347;DHT22;667;48.796;9.480;2023-12-20T08:20:42;8.40;92.50
1347;DHT22;667;48.796;9.480;2023-12-20T08:23:08;8.40;92.40
1347;DHT22;667;48.796;9.480;2023-12-20T08:25:33;8.40;92.40
1347;DHT22;667;48.796;9.480;2023-12-20T08:27:59;8.40;92.20
1347;DHT22;667;48.796;9.480;2023-12-20T08:30:24;8.40;92.10
1347;DHT22;667;48.796;9.480;2023-12-20T08:32:50;8.40;92.10
1347;DHT22;667;48.796;9.480;2023-12-20T08:35:16;8.40;92.20
1347;DHT22;667;48.796;9.480;2023-12-20T08:37:42;8.40;91.80
1347;DHT22;667;48.796;9.480;2023-12-20T08:40:08;8.40;91.70
1347;DHT22;667;48.796;9.480;2023-12-20T08:42:34;8.40;91.60
1347;DHT22;667;48.796;9.480;2023-12-20T08:45:00;8.40;91.50
1347;DHT22;667;48.796;9.480;2023-12-20T08:47:25;8.40;91.10
1347;DHT22;667;48.796;9.480;2023-12-20T08:49:51;8.40;90.80
1347;DHT22;667;48.796;9.480;2023-12-20T08:52:24;8.40;90.70
1347;DHT22;667;48.796;9.480;2023-12-20T08:54:50;8.40;90.50
1347;DHT22;667;48.796;9.480;2023-12-20T08:57:22;8.40;90.40
1347;DHT22;667;48.796;9.480;2023-12-20T08:59:49;8.40;90.30
1347;DHT22;667;48.796;9.480;2023-12-20T09:02:15;8.40;90.20
1347;DHT22;667;48.796;9.480;2023-12-20T09:04:40;8.40;90.00
1347;DHT22;667;48.796;9.480;2023-12-20T09:07:06;8.40;89.90
1347;DHT22;667;48.796;9.480;2023-12-20T09:09:33;8.40;89.60
1347;DHT22;667;48.796;9.480;2023-12-20T09:11:59;8.60;89.80
1347;DHT22;667;48.796;9.480;2023-12-20T09:14:24;9.10;90.30
1347;DHT22;667;48.796;9.480;2023-12-20T09:16:50;10.30;89.60
1347;DHT22;667;48.796;9.480;2023-12-20T09:19:17;11.70;85.20
1347;DHT22;667;48.796;9.480;2023-12-20T09:21:43;12.80;79.40
1347;DHT22;667;48.796;9.480;2023-12-20T09:24:08;13.50;74.00
1347;DHT22;667;48.796;9.480;2023-12-20T09:26:34;14.20;71.30
1347;DHT22;667;48.796;9.480;2023-12-20T09:29:00;15.20;68.20
1347;DHT22;667;48.796;9.480;2023-12-20T09:31:25;16.40;65.00
1347;DHT22;667;48.796;9.480;2023-12-20T09:33:51;17.50;59.70
1347;DHT22;667;48.796;9.480;2023-12-20T09:36:17;18.20;57.30
1347;DHT22;667;48.796;9.480;2023-12-20T09:38:42;18.80;55.20
1347;DHT22;667;48.796;9.480;2023-12-20T09:41:08;19.60;53.50
1347;DHT22;667;48.796;9.480;2023-12-20T09:43:37;20.50;51.70
1347;DHT22;667;48.796;9.480;2023-12-20T09:46:05;21.40;49.80
1347;DHT22;667;48.796;9.480;2023-12-20T09:48:31;22.00;47.60
1347;DHT22;667;48.796;9.480;2023-12-20T09:50:58;22.80;45.90
1347;DHT22;667;48.796;9.480;2023-12-20T09:53:25;23.50;44.30
1347;DHT22;667;48.796;9.480;2023-12-20T09:55:58;24.20;42.80
1347;DHT22;667;48.796;9.480;2023-12-20T09:58:25;24.80;41.40
1347;DHT22;667;48.796;9.480;2023-12-20T10:00:51;25.40;40.60
1347;DHT22;667;48.796;9.480;2023-12-20T10:03:23;25.90;39.50
1347;DHT22;667;48.796;9.480;2023-12-20T10:05:54;25.80;38.60
1347;DHT22;667;48.796;9.480;2023-12-20T10:08:21;26.00;37.90
1347;DHT22;667;48.796;9.480;2023-12-20T10:10:48;26.20;37.40
1347;DHT22;667;48.796;9.480;2023-12-20T10:13:13;26.50;36.80
1347;DHT22;667;48.796;9.480;2023-12-20T10:15:40;26.80;36.20
1347;DHT22;667;48.796;9.480;2023-12-20T10:18:06;26.70;35.60
1347;DHT22;667;48.796;9.480;2023-12-20T10:20:32;26.80;35.10
1347;DHT22;667;48.796;9.480;2023-12-20T10:22:59;27.00;35.00
1347;DHT22;667;48.796;9.480;2023-12-20T10:25:25;27.10;34.30
1347;DHT22;667;48.796;9.480;2023-12-20T10:28:09;26.60;33.60
1347;DHT22;667;48.796;9.480;2023-12-20T10:30:35;26.30;34.00
1347;DHT22;667;48.796;9.480;2023-12-20T10:33:01;26.40;34.30
1347;DHT22;667;48.796;9.480;2023-12-20T10:35:26;26.50;33.70
1347;DHT22;667;48.796;9.480;2023-12-20T10:37:56;26.60;33.90
1347;DHT22;667;48.796;9.480;2023-12-20T10:40:25;26.50;33.50
1347;DHT22;667;48.796;9.480;2023-12-20T10:42:53;26.30;33.40
1347;DHT22;667;48.796;9.480;2023-12-20T10:45:19;26.30;33.10
1347;DHT22;667;48.796;9.480;2023-12-20T10:47:46;26.30;33.10
1347;DHT22;667;48.796;9.480;2023-12-20T10:50:12;26.50;33.10
1347;DHT22;667;48.796;9.480;2023-12-20T10:52:38;25.60;32.40
1347;DHT22;667;48.796;9.480;2023-12-20T10:55:05;23.50;33.10
1347;DHT22;667;48.796;9.480;2023-12-20T10:57:31;21.30;35.90
1347;DHT22;667;48.796;9.480;2023-12-20T11:00:01;19.40;37.50
1347;DHT22;667;48.796;9.480;2023-12-20T11:02:32;18.20;40.00
1347;DHT22;667;48.796;9.480;2023-12-20T11:13:22;14.80;46.00
1347;DHT22;667;48.796;9.480;2023-12-20T11:15:48;14.30;47.20
1347;DHT22;667;48.796;9.480;2023-12-20T11:18:15;13.80;48.50
1347;DHT22;667;48.796;9.480;2023-12-20T11:20:41;13.40;49.40
1347;DHT22;667;48.796;9.480;2023-12-20T11:23:10;13.10;50.30
1347;DHT22;667;48.796;9.480;2023-12-20T11:26:08;12.90;51.10
1347;DHT22;667;48.796;9.480;2023-12-20T11:28:34;12.60;51.60
1347;DHT22;667;48.796;9.480;2023-12-20T11:31:01;12.30;51.70
1347;DHT22;667;48.796;9.480;2023-12-20T11:33:39;12.00;52.40
1347;DHT22;667;48.796;9.480;2023-12-20T11:36:13;11.70;52.70
1347;DHT22;667;48.796;9.480;2023-12-20T11:38:54;11.50;53.40
1347;DHT22;667;48.796;9.480;2023-12-20T11:41:23;11.20;54.00
1347;DHT22;667;48.796;9.480;2023-12-20T11:43:53;11.00;54.60
1347;DHT22;667;48.796;9.480;2023-12-20T11:46:19;10.90;55.30
1347;DHT22;667;48.796;9.480;2023-12-20T11:48:45;10.70;55.60
1347;DHT22;667;48.796;9.480;2023-12-20T11:51:13;10.60;56.00
1347;DHT22;667;48.796;9.480;2023-12-20T11:53:40;10.50;56.50
1347;DHT22;667;48.796;9.480;2023-12-20T11:56:07;10.40;57.00
1347;DHT22;667;48.796;9.480;2023-12-20T11:58:36;10.20;57.00
1347;DHT22;667;48.796;9.480;2023-12-20T12:01:02;10.10;57.10
1347;DHT22;667;48.796;9.480;2023-12-20T12:03:28;10.00;57.40
1347;DHT22;667;48.796;9.480;2023-12-20T12:05:53;9.90;58.70
1347;DHT22;667;48.796;9.480;2023-12-20T12:08:19;9.80;58.90
1347;DHT22;667;48.796;9.480;2023-12-20T12:10:45;9.70;59.10
1347;DHT22;667;48.796;9.480;2023-12-20T12:13:11;9.60;59.10
1347;DHT22;667;48.796;9.480;2023-12-20T12:15:37;9.60;59.30
1347;DHT22;667;48.796;9.480;2023-12-20T12:18:03;9.50;59.20
1347;DHT22;667;48.796;9.480;2023-12-20T12:20:30;9.50;59.30
1347;DHT22;667;48.796;9.480;2023-12-20T12:23:02;9.40;59.40
1347;DHT22;667;48.796;9.480;2023-12-20T12:25:32;9.40;59.50
1347;DHT22;667;48.796;9.480;2023-12-20T12:27:58;9.40;59.70
1347;DHT22;667;48.796;9.480;2023-12-20T12:30:25;9.40;59.70
1347;DHT22;667;48.796;9.480;2023-12-20T12:32:52;9.30;59.70
1347;DHT22;667;48.796;9.480;2023-12-20T12:35:18;9.20;59.80
1347;DHT22;667;48.796;9.480;2023-12-20T12:37:44;9.20;61.00
1347;DHT22;667;48.796;9.480;2023-12-20T12:40:11;9.20;60.50
1347;DHT22;667;48.796;9.480;2023-12-20T12:42:37;9.20;60.70
1347;DHT22;667;48.796;9.480;2023-12-20T12:45:04;9.20;60.90
1347;DHT22;667;48.796;9.480;2023-12-20T12:47:30;9.30;61.20
1347;DHT22;667;48.796;9.480;2023-12-20T12:49:56;9.30;61.00
1347;DHT22;667;48.796;9.480;2023-12-20T12:52:22;9.30;60.70
1347;DHT22;667;48.796;9.480;2023-12-20T12:54:48;9.30;60.60
1347;DHT22;667;48.796;9.480;2023-12-20T12:57:15;9.30;60.60
1347;DHT22;667;48.796;9.480;2023-12-20T12:59:44;9.30;60.90
1347;DHT22;667;48.796;9.480;2023-12-20T13:02:12;9.30;61.00
1347;DHT22;667;48.796;9.480;2023-12-20T13:04:38;9.30;61.00
1347;DHT22;667;48.796;9.480;2023-12-20T13:07:04;9.30;61.20
1347;DHT22;667;48.796;9.480;2023-12-20T13:09:30;9.30;61.00
1347;DHT22;667;48.796;9.480;2023-12-20T13:11:55;9.30;61.10
1347;DHT22;667;48.796;9.480;2023-12-20T13:14:21;9.40;61.10
1347;DHT22;667;48.796;9.480;2023-12-20T13:16:47;9.40;61.00
1347;DHT22;667;48.796;9.480;2023-12-20T13:19:12;9.30;61.20
1347;DHT22;667;48.796;9.480;2023-12-20T13:21:38;9.30;61.30
1347;DHT22;667;48.796;9.480;2023-12-20T13:24:05;9.30;61.40
1347;DHT22;667;48.796;9.480;2023-12-20T13:26:31;9.30;61.60
1347;DHT22;667;48.796;9.480;2023-12-20T13:28:56;9.30;61.80
1347;DHT22;667;48.796;9.480;2023-12-20T13:31:22;9.30;61.80
1347;DHT22;667;48.796;9.480;2023-12-20T13:33:47;9.30;62.00
1347;DHT22;667;48.796;9.480;2023-12-20T13:36:13;9.30;62.00
1347;DHT22;667;48.796;9.480;2023-12-20T13:38:39;9.30;61.90
1347;DHT22;667;48.796;9.480;2023-12-20T13:41:04;9.20;61.90
1347;DHT22;667;48.796;9.480;2023-12-20T13:43:33;9.20;62.10
1347;DHT22;667;48.796;9.480;2023-12-20T13:46:00;9.20;62.30
1347;DHT22;667;48.796;9.480;2023-12-20T13:48:25;9.20;62.50
1347;DHT22;667;48.796;9.480;2023-12-20T13:50:51;9.20;62.50
1347;DHT22;667;48.796;9.480;2023-12-20T13:53:16;9.20;62.20
1347;DHT22;667;48.796;9.480;2023-12-20T13:55:42;9.20;62.30
1347;DHT22;667;48.796;9.480;2023-12-20T13:58:07;9.20;62.30
1347;DHT22;667;48.796;9.480;2023-12-20T14:00:35;9.20;62.30
1347;DHT22;667;48.796;9.480;2023-12-20T14:03:02;9.20;62.50
1347;DHT22;667;48.796;9.480;2023-12-20T14:05:28;9.20;62.50
1347;DHT22;667;48.796;9.480;2023-12-20T14:07:53;9.20;62.60
1347;DHT22;667;48.796;9.480;2023-12-20T14:10:19;9.10;62.40
1347;DHT22;667;48.796;9.480;2023-12-20T14:12:45;9.10;62.40
1347;DHT22;667;48.796;9.480;2023-12-20T14:15:11;9.10;62.50
1347;DHT22;667;48.796;9.480;2023-12-20T14:17:39;9.10;62.40
1347;DHT22;667;48.796;9.480;2023-12-20T14:20:08;9.10;62.60
1347;DHT22;667;48.796;9.480;2023-12-20T14:22:34;9.10;62.90
1347;DHT22;667;48.796;9.480;2023-12-20T14:25:00;9.10;63.40
1347;DHT22;667;48.796;9.480;2023-12-20T14:27:26;9.10;63.70
1347;DHT22;667;48.796;9.480;2023-12-20T14:29:55;9.10;64.00
1347;DHT22;667;48.796;9.480;2023-12-20T14:32:21;9.10;64.40
1347;DHT22;667;48.796;9.480;2023-12-20T14:34:46;9.10;64.70
1347;DHT22;667;48.796;9.480;2023-12-20T14:37:12;9.10;64.80
1347;DHT22;667;48.796;9.480;2023-12-20T14:39:38;9.10;65.00
1347;DHT22;667;48.796;9.480;2023-12-20T14:42:09;9.10;65.30
1347;DHT22;667;48.796;9.480;2023-12-20T14:44:39;9.10;65.60
1347;DHT22;667;48.796;9.480;2023-12-20T14:47:04;9.10;65.70
1347;DHT22;667;48.796;9.480;2023-12-20T14:49:31;9.10;65.70
1347;DHT22;667;48.796;9.480;2023-12-20T14:51:56;9.00;65.80
1347;DHT22;667;48.796;9.480;2023-12-20T14:54:22;9.00;65.90
1347;DHT22;667;48.796;9.480;2023-12-20T14:56:48;9.00;65.80
1347;DHT22;667;48.796;9.480;2023-12-20T14:59:13;9.00;65.90
1347;DHT22;667;48.796;9.480;2023-12-20T15:01:39;9.00;66.20
1347;DHT22;667;48.796;9.480;2023-12-20T15:04:08;9.00;66.60
1347;DHT22;667;48.796;9.480;2023-12-20T15:06:34;8.90;66.90
1347;DHT22;667;48.796;9.480;2023-12-20T15:09:00;8.90;67.20
1347;DHT22;667;48.796;9.480;2023-12-20T15:11:26;8.90;67.60
1347;DHT22;667;48.796;9.480;2023-12-20T15:13:52;8.90;67.90
1347;DHT22;667;48.796;9.480;2023-12-20T15:16:22;8.80;68.10
1347;DHT22;667;48.796;9.480;2023-12-20T15:18:47;8.80;68.40
1347;DHT22;667;48.796;9.480;2023-12-20T15:21:14;8.80;68.80
1347;DHT22;667;48.796;9.480;2023-12-20T15:23:39;8.70;69.00
1347;DHT22;667;48.796;9.480;2023-12-20T15:26:08;8.70;69.40
1347;DHT22;667;48.796;9.480;2023-12-20T15:28:34;8.70;69.80
1347;DHT22;667;48.796;9.480;2023-12-20T15:31:00;8.70;70.20
1347;DHT22;667;48.796;9.480;2023-12-20T15:33:25;8.70;70.50
1347;DHT22;667;48.796;9.480;2023-12-20T15:35:51;8.70;70.70
1347;DHT22;667;48.796;9.480;2023-12-20T15:38:16;8.70;70.80
1347;DHT22;667;48.796;9.480;2023-12-20T15:40:42;8.70;71.10
1347;DHT22;667;48.796;9.480;2023-12-20T15:43:08;8.80;71.50
1347;DHT22;667;48.796;9.480;2023-12-20T15:45:33;8.80;71.70
1347;DHT22;667;48.796;9.480;2023-12-20T15:47:59;8.70;71.60
1347;DHT22;667;48.796;9.480;2023-12-20T15:50:24;8.80;71.80
1347;DHT22;667;48.796;9.480;2023-12-20T15:52:50;8.70;71.80
1347;DHT22;667;48.796;9.480;2023-12-20T15:55:16;8.70;71.90
1347;DHT22;667;48.796;9.480;2023-12-20T15:57:41;8.70;72.10
1347;DHT22;667;48.796;9.480;2023-12-20T16:00:07;8.70;72.30
1347;DHT22;667;48.796;9.480;2023-12-20T16:02:33;8.70;72.40
1347;DHT22;667;48.796;9.480;2023-12-20T16:04:59;8.60;72.30
1347;DHT22;667;48.796;9.480;2023-12-20T16:07:24;8.60;72.40
1347;DHT22;667;48.796;9.480;2023-12-20T16:09:50;8.60;72.30
1347;DHT22;667;48.796;9.480;2023-12-20T16:12:16;8.60;72.50
1347;DHT22;667;48.796;9.480;2023-12-20T16:14:41;8.60;72.60
1347;DHT22;667;48.796;9.480;2023-12-20T16:17:07;8.60;72.60
1347;DHT22;667;48.796;9.480;2023-12-20T16:19:33;8.50;72.50
1347;DHT22;667;48.796;9.480;2023-12-20T16:21:58;8.50;72.70
1347;DHT22;667;48.796;9.480;2023-12-20T16:24:24;8.40;72.80
1347;DHT22;667;48.796;9.480;2023-12-20T16:26:50;8.40;73.00
1347;DHT22;667;48.796;9.480;2023-12-20T16:29:15;8.40;73.20
1347;DHT22;667;48.796;9.480;2023-12-20T16:31:41;8.40;73.30
1347;DHT22;667;48.796;9.480;2023-12-20T16:34:06;8.40;73.20